CZUM/ZUM METAR and TAF weather

Enter ICAO airport designator
Station Type Date Time Source
CZUM METAR 2023/11/30 23:44 UTC NOAA

CZUM 302344Z AUTO 15005KT 6SM -SN FEW011 BKN019 BKN050 OVC071 M10/M11 A2956 RMK SLP045


Station Type Date Time Source
CZUM Decoded METAR 2023/11/30 23:44 UTC NOAA

Churchill Falls, Nfld., Canada (CZUM) 53-33N 064-06W 440M
Nov 30, 2023 - 06:44 PM EST / 2023.11.30 2344 UTC
Wind: from the SSE (150 degrees) at 6 MPH (5 KT):0
Visibility: 6 mile(s):0
Sky conditions: overcast
Weather: light snow
Temperature: 14 F (-10 C)
Windchill: 5 F (-15 C):1
Dew Point: 12 F (-11 C)
Relative Humidity: 92%
Pressure (altimeter): 29.56 in. Hg (1001 hPa)
ob: CZUM 302344Z AUTO 15005KT 6SM -SN FEW011 BKN019 BKN050 OVC071 M10/M11 A2956 RMK SLP045
cycle: 23

Station Type Date Time Source
CZUM TAF 2023/11/30 20:42 UTC NOAA

TAF CZUM 301940Z 3020/0108 17010KT 6SM -SN SCT020 OVC050
TEMPO 3020/3024 2SM -SN OVC020 PROB30 3020/3024 3/4SM -SN VV008
FM010000 17008KT 2SM -SN OVC020
TEMPO 0100/0105 6SM -SN OVC030 PROB40 0100/0105 3/4SM -SN VV008
FM010500 14005KT 6SM -SN OVC030
FM010700 13005KT 2SM -SN OVC020
RMK FCST BASED ON AUTO OBS. NXT FCST BY 010200Z

Example: see airport list